sensor_id;sensor_type;location;lat;lon;timestamp;P1;durP1;ratioP1;P2;durP2;ratioP2
75837;SDS011;64480;52.040;113.502;2023-04-29T00:01:23;36.70;;;18.65;;
75837;SDS011;64480;52.040;113.502;2023-04-29T00:04:27;33.85;;;17.73;;
75837;SDS011;64480;52.040;113.502;2023-04-29T00:07:31;29.98;;;16.45;;
75837;SDS011;64480;52.040;113.502;2023-04-29T00:10:38;28.65;;;16.30;;
75837;SDS011;64480;52.040;113.502;2023-04-29T00:17:20;37.33;;;15.38;;
75837;SDS011;64480;52.040;113.502;2023-04-29T00:20:27;19.90;;;10.18;;
75837;SDS011;64480;52.040;113.502;2023-04-29T00:23:33;23.80;;;12.57;;
75837;SDS011;64480;52.040;113.502;2023-04-29T00:26:40;15.82;;;9.48;;
75837;SDS011;64480;52.040;113.502;2023-04-29T00:29:44;20.55;;;12.45;;
75837;SDS011;64480;52.040;113.502;2023-04-29T00:32:47;35.60;;;14.68;;
75837;SDS011;64480;52.040;113.502;2023-04-29T00:35:51;19.30;;;10.38;;
75837;SDS011;64480;52.040;113.502;2023-04-29T00:38:54;21.70;;;9.98;;
75837;SDS011;64480;52.040;113.502;2023-04-29T00:42:01;30.20;;;12.32;;
75837;SDS011;64480;52.040;113.502;2023-04-29T00:45:05;34.28;;;12.35;;
75837;SDS011;64480;52.040;113.502;2023-04-29T00:48:09;21.67;;;9.60;;
75837;SDS011;64480;52.040;113.502;2023-04-29T00:54:40;24.88;;;10.68;;
75837;SDS011;64480;52.040;113.502;2023-04-29T00:57:48;24.83;;;11.05;;
75837;SDS011;64480;52.040;113.502;2023-04-29T01:04:25;25.02;;;10.70;;
75837;SDS011;64480;52.040;113.502;2023-04-29T01:07:37;38.80;;;11.63;;
75837;SDS011;64480;52.040;113.502;2023-04-29T01:11:08;27.63;;;10.73;;
75837;SDS011;64480;52.040;113.502;2023-04-29T01:14:17;26.35;;;12.05;;
75837;SDS011;64480;52.040;113.502;2023-04-29T01:17:22;28.48;;;11.70;;
75837;SDS011;64480;52.040;113.502;2023-04-29T01:20:30;33.50;;;14.13;;
75837;SDS011;64480;52.040;113.502;2023-04-29T01:23:35;27.80;;;12.20;;
75837;SDS011;64480;52.040;113.502;2023-04-29T01:26:50;34.15;;;14.90;;
75837;SDS011;64480;52.040;113.502;2023-04-29T01:30:24;33.17;;;13.57;;
75837;SDS011;64480;52.040;113.502;2023-04-29T01:36:58;29.10;;;13.57;;
75837;SDS011;64480;52.040;113.502;2023-04-29T01:40:15;32.95;;;13.10;;
75837;SDS011;64480;52.040;113.502;2023-04-29T01:43:54;31.70;;;14.18;;
75837;SDS011;64480;52.040;113.502;2023-04-29T01:47:00;29.63;;;13.90;;
75837;SDS011;64480;52.040;113.502;2023-04-29T01:50:11;22.67;;;11.18;;
75837;SDS011;64480;52.040;113.502;2023-04-29T01:53:17;31.65;;;13.15;;
75837;SDS011;64480;52.040;113.502;2023-04-29T01:56:21;30.40;;;12.68;;
75837;SDS011;64480;52.040;113.502;2023-04-29T01:59:49;27.70;;;12.43;;
75837;SDS011;64480;52.040;113.502;2023-04-29T02:03:19;29.48;;;12.98;;
75837;SDS011;64480;52.040;113.502;2023-04-29T02:06:27;29.23;;;12.60;;
75837;SDS011;64480;52.040;113.502;2023-04-29T02:09:37;29.67;;;11.07;;
75837;SDS011;64480;52.040;113.502;2023-04-29T02:12:50;21.27;;;11.23;;
75837;SDS011;64480;52.040;113.502;2023-04-29T02:15:54;29.38;;;10.32;;
75837;SDS011;64480;52.040;113.502;2023-04-29T02:19:15;29.83;;;12.68;;
75837;SDS011;64480;52.040;113.502;2023-04-29T02:22:20;31.38;;;11.88;;
75837;SDS011;64480;52.040;113.502;2023-04-29T02:25:27;37.72;;;10.30;;
75837;SDS011;64480;52.040;113.502;2023-04-29T02:28:36;37.05;;;12.25;;
75837;SDS011;64480;52.040;113.502;2023-04-29T02:31:40;24.00;;;9.05;;
75837;SDS011;64480;52.040;113.502;2023-04-29T02:34:49;25.08;;;9.70;;
75837;SDS011;64480;52.040;113.502;2023-04-29T02:37:59;20.45;;;11.15;;
75837;SDS011;64480;52.040;113.502;2023-04-29T02:41:06;29.23;;;10.35;;
75837;SDS011;64480;52.040;113.502;2023-04-29T02:44:10;35.28;;;9.82;;
75837;SDS011;64480;52.040;113.502;2023-04-29T02:47:17;23.20;;;9.30;;
75837;SDS011;64480;52.040;113.502;2023-04-29T02:50:20;20.55;;;9.32;;
75837;SDS011;64480;52.040;113.502;2023-04-29T02:53:24;20.67;;;8.88;;
75837;SDS011;64480;52.040;113.502;2023-04-29T02:56:34;35.70;;;8.95;;
75837;SDS011;64480;52.040;113.502;2023-04-29T02:59:38;30.38;;;9.55;;
75837;SDS011;64480;52.040;113.502;2023-04-29T03:02:44;25.83;;;8.55;;
75837;SDS011;64480;52.040;113.502;2023-04-29T03:05:51;26.77;;;8.93;;
75837;SDS011;64480;52.040;113.502;2023-04-29T03:08:55;16.08;;;9.38;;
75837;SDS011;64480;52.040;113.502;2023-04-29T03:15:29;18.67;;;8.60;;
75837;SDS011;64480;52.040;113.502;2023-04-29T03:18:32;28.75;;;8.25;;
75837;SDS011;64480;52.040;113.502;2023-04-29T03:21:45;20.02;;;8.55;;
75837;SDS011;64480;52.040;113.502;2023-04-29T03:24:48;23.55;;;7.88;;
75837;SDS011;64480;52.040;113.502;2023-04-29T03:27:57;12.82;;;5.70;;
75837;SDS011;64480;52.040;113.502;2023-04-29T03:31:01;13.13;;;6.20;;
75837;SDS011;64480;52.040;113.502;2023-04-29T03:34:14;21.80;;;7.03;;
75837;SDS011;64480;52.040;113.502;2023-04-29T03:37:25;12.68;;;5.15;;
75837;SDS011;64480;52.040;113.502;2023-04-29T03:40:42;11.18;;;4.85;;
75837;SDS011;64480;52.040;113.502;2023-04-29T03:43:48;11.30;;;5.43;;
75837;SDS011;64480;52.040;113.502;2023-04-29T03:50:22;17.20;;;4.22;;
75837;SDS011;64480;52.040;113.502;2023-04-29T03:53:30;8.98;;;3.55;;
75837;SDS011;64480;52.040;113.502;2023-04-29T03:56:36;13.75;;;4.78;;
75837;SDS011;64480;52.040;113.502;2023-04-29T03:59:40;8.95;;;3.40;;
75837;SDS011;64480;52.040;113.502;2023-04-29T04:02:44;7.70;;;3.42;;
75837;SDS011;64480;52.040;113.502;2023-04-29T04:05:49;17.00;;;3.80;;
75837;SDS011;64480;52.040;113.502;2023-04-29T04:08:53;9.02;;;3.42;;
75837;SDS011;64480;52.040;113.502;2023-04-29T04:12:03;8.55;;;3.42;;
75837;SDS011;64480;52.040;113.502;2023-04-29T04:15:08;7.20;;;2.80;;
75837;SDS011;64480;52.040;113.502;2023-04-29T04:18:13;6.25;;;2.92;;
75837;SDS011;64480;52.040;113.502;2023-04-29T04:21:17;6.28;;;2.83;;
75837;SDS011;64480;52.040;113.502;2023-04-29T04:24:29;11.85;;;3.13;;
75837;SDS011;64480;52.040;113.502;2023-04-29T04:27:32;8.52;;;3.72;;
75837;SDS011;64480;52.040;113.502;2023-04-29T04:30:41;6.97;;;2.85;;
75837;SDS011;64480;52.040;113.502;2023-04-29T04:33:44;6.43;;;2.85;;
75837;SDS011;64480;52.040;113.502;2023-04-29T04:36:51;5.60;;;2.63;;
75837;SDS011;64480;52.040;113.502;2023-04-29T04:39:59;12.55;;;3.42;;
75837;SDS011;64480;52.040;113.502;2023-04-29T04:43:07;10.43;;;2.90;;
75837;SDS011;64480;52.040;113.502;2023-04-29T04:46:14;6.13;;;2.30;;
75837;SDS011;64480;52.040;113.502;2023-04-29T04:49:32;8.93;;;2.92;;
75837;SDS011;64480;52.040;113.502;2023-04-29T04:52:41;10.20;;;3.50;;
75837;SDS011;64480;52.040;113.502;2023-04-29T04:56:14;7.43;;;3.58;;
75837;SDS011;64480;52.040;113.502;2023-04-29T04:59:22;14.90;;;3.78;;
75837;SDS011;64480;52.040;113.502;2023-04-29T05:02:26;10.23;;;4.60;;
75837;SDS011;64480;52.040;113.502;2023-04-29T05:05:29;16.10;;;4.95;;
75837;SDS011;64480;52.040;113.502;2023-04-29T05:15:29;7.28;;;2.80;;
75837;SDS011;64480;52.040;113.502;2023-04-29T05:18:39;6.95;;;2.70;;
75837;SDS011;64480;52.040;113.502;2023-04-29T05:21:44;11.88;;;3.22;;
75837;SDS011;64480;52.040;113.502;2023-04-29T05:24:51;4.57;;;2.92;;
75837;SDS011;64480;52.040;113.502;2023-04-29T05:27:58;4.75;;;2.33;;
75837;SDS011;64480;52.040;113.502;2023-04-29T05:34:12;8.27;;;2.80;;
75837;SDS011;64480;52.040;113.502;2023-04-29T05:41:20;7.93;;;2.40;;
75837;SDS011;64480;52.040;113.502;2023-04-29T05:44:56;10.48;;;4.05;;
75837;SDS011;64480;52.040;113.502;2023-04-29T05:48:20;10.98;;;3.05;;
75837;SDS011;64480;52.040;113.502;2023-04-29T05:59:16;9.00;;;3.45;;
75837;SDS011;64480;52.040;113.502;2023-04-29T06:06:16;11.30;;;4.78;;
75837;SDS011;64480;52.040;113.502;2023-04-29T06:09:43;8.70;;;3.08;;
75837;SDS011;64480;52.040;113.502;2023-04-29T06:12:50;5.60;;;2.22;;
75837;SDS011;64480;52.040;113.502;2023-04-29T06:19:31;14.93;;;3.20;;
75837;SDS011;64480;52.040;113.502;2023-04-29T06:22:51;7.13;;;2.78;;
75837;SDS011;64480;52.040;113.502;2023-04-29T06:25:55;12.82;;;3.05;;
75837;SDS011;64480;52.040;113.502;2023-04-29T06:29:02;10.35;;;3.72;;
75837;SDS011;64480;52.040;113.502;2023-04-29T06:32:07;11.32;;;2.70;;
75837;SDS011;64480;52.040;113.502;2023-04-29T06:35:11;8.10;;;2.40;;
75837;SDS011;64480;52.040;113.502;2023-04-29T06:42:30;12.90;;;3.28;;
75837;SDS011;64480;52.040;113.502;2023-04-29T06:46:06;13.02;;;3.95;;
75837;SDS011;64480;52.040;113.502;2023-04-29T06:49:17;10.50;;;3.75;;
75837;SDS011;64480;52.040;113.502;2023-04-29T06:52:22;12.68;;;3.85;;
75837;SDS011;64480;52.040;113.502;2023-04-29T06:55:26;12.70;;;2.88;;
75837;SDS011;64480;52.040;113.502;2023-04-29T07:02:02;5.97;;;3.25;;
75837;SDS011;64480;52.040;113.502;2023-04-29T07:08:38;11.85;;;6.18;;
75837;SDS011;64480;52.040;113.502;2023-04-29T07:11:44;8.10;;;2.17;;
75837;SDS011;64480;52.040;113.502;2023-04-29T07:14:55;4.05;;;2.22;;
75837;SDS011;64480;52.040;113.502;2023-04-29T07:18:00;5.22;;;2.28;;
75837;SDS011;64480;52.040;113.502;2023-04-29T07:24:23;13.43;;;2.92;;
75837;SDS011;64480;52.040;113.502;2023-04-29T07:34:45;7.05;;;2.03;;
75837;SDS011;64480;52.040;113.502;2023-04-29T07:37:53;12.00;;;2.65;;
75837;SDS011;64480;52.040;113.502;2023-04-29T07:41:11;4.75;;;2.50;;
75837;SDS011;64480;52.040;113.502;2023-04-29T07:44:16;8.15;;;2.92;;
75837;SDS011;64480;52.040;113.502;2023-04-29T07:47:23;3.50;;;1.75;;
75837;SDS011;64480;52.040;113.502;2023-04-29T07:54:18;6.18;;;2.03;;
75837;SDS011;64480;52.040;113.502;2023-04-29T07:57:24;5.05;;;2.50;;
75837;SDS011;64480;52.040;113.502;2023-04-29T08:04:00;6.95;;;1.90;;
75837;SDS011;64480;52.040;113.502;2023-04-29T08:07:12;7.97;;;2.45;;
75837;SDS011;64480;52.040;113.502;2023-04-29T08:10:19;20.90;;;3.30;;
75837;SDS011;64480;52.040;113.502;2023-04-29T08:13:25;6.93;;;3.53;;
75837;SDS011;64480;52.040;113.502;2023-04-29T08:16:32;10.43;;;2.97;;
75837;SDS011;64480;52.040;113.502;2023-04-29T08:19:36;14.18;;;3.13;;
75837;SDS011;64480;52.040;113.502;2023-04-29T08:22:43;11.57;;;3.60;;
75837;SDS011;64480;52.040;113.502;2023-04-29T08:25:52;8.35;;;2.75;;
75837;SDS011;64480;52.040;113.502;2023-04-29T08:32:53;16.77;;;4.13;;
75837;SDS011;64480;52.040;113.502;2023-04-29T08:35:57;10.43;;;3.05;;
75837;SDS011;64480;52.040;113.502;2023-04-29T08:39:05;7.00;;;2.40;;
75837;SDS011;64480;52.040;113.502;2023-04-29T08:42:51;8.80;;;2.78;;
75837;SDS011;64480;52.040;113.502;2023-04-29T08:45:56;5.45;;;2.20;;
75837;SDS011;64480;52.040;113.502;2023-04-29T08:49:01;7.63;;;2.97;;
75837;SDS011;64480;52.040;113.502;2023-04-29T08:52:29;6.50;;;2.60;;
75837;SDS011;64480;52.040;113.502;2023-04-29T08:55:52;6.80;;;2.88;;
75837;SDS011;64480;52.040;113.502;2023-04-29T08:59:08;8.02;;;2.67;;
75837;SDS011;64480;52.040;113.502;2023-04-29T09:02:20;6.90;;;3.30;;
75837;SDS011;64480;52.040;113.502;2023-04-29T09:15:59;7.05;;;2.17;;
75837;SDS011;64480;52.040;113.502;2023-04-29T09:19:07;10.70;;;3.10;;
75837;SDS011;64480;52.040;113.502;2023-04-29T09:25:57;18.08;;;5.63;;
75837;SDS011;64480;52.040;113.502;2023-04-29T09:29:08;11.48;;;2.90;;
75837;SDS011;64480;52.040;113.502;2023-04-29T09:32:21;18.50;;;3.95;;
75837;SDS011;64480;52.040;113.502;2023-04-29T09:35:27;11.38;;;3.53;;
75837;SDS011;64480;52.040;113.502;2023-04-29T09:42:02;11.88;;;3.15;;
75837;SDS011;64480;52.040;113.502;2023-04-29T09:52:05;5.43;;;2.90;;
75837;SDS011;64480;52.040;113.502;2023-04-29T09:59:29;24.65;;;4.38;;
75837;SDS011;64480;52.040;113.502;2023-04-29T10:02:34;8.00;;;2.45;;
75837;SDS011;64480;52.040;113.502;2023-04-29T10:05:38;5.50;;;2.50;;
75837;SDS011;64480;52.040;113.502;2023-04-29T10:08:42;12.80;;;3.05;;
75837;SDS011;64480;52.040;113.502;2023-04-29T10:11:55;3.75;;;1.85;;
75837;SDS011;64480;52.040;113.502;2023-04-29T10:15:02;4.65;;;1.52;;
75837;SDS011;64480;52.040;113.502;2023-04-29T10:18:20;4.15;;;1.67;;
75837;SDS011;64480;52.040;113.502;2023-04-29T10:21:29;13.02;;;2.42;;
75837;SDS011;64480;52.040;113.502;2023-04-29T10:24:34;11.43;;;2.97;;
75837;SDS011;64480;52.040;113.502;2023-04-29T10:27:43;11.90;;;5.57;;
75837;SDS011;64480;52.040;113.502;2023-04-29T10:30:50;9.27;;;2.97;;
75837;SDS011;64480;52.040;113.502;2023-04-29T10:37:54;8.73;;;2.40;;
75837;SDS011;64480;52.040;113.502;2023-04-29T10:41:08;8.85;;;2.40;;
75837;SDS011;64480;52.040;113.502;2023-04-29T10:44:19;5.57;;;2.25;;
75837;SDS011;64480;52.040;113.502;2023-04-29T10:47:22;9.10;;;2.25;;
75837;SDS011;64480;52.040;113.502;2023-04-29T10:50:29;7.20;;;3.20;;
75837;SDS011;64480;52.040;113.502;2023-04-29T10:53:34;9.63;;;2.80;;
75837;SDS011;64480;52.040;113.502;2023-04-29T10:56:58;16.70;;;3.58;;
75837;SDS011;64480;52.040;113.502;2023-04-29T11:00:17;12.65;;;3.28;;
75837;SDS011;64480;52.040;113.502;2023-04-29T11:03:55;11.15;;;4.82;;
75837;SDS011;64480;52.040;113.502;2023-04-29T11:07:03;4.07;;;2.15;;
75837;SDS011;64480;52.040;113.502;2023-04-29T11:10:07;13.20;;;3.35;;
75837;SDS011;64480;52.040;113.502;2023-04-29T11:13:20;19.58;;;3.40;;
75837;SDS011;64480;52.040;113.502;2023-04-29T11:16:24;16.23;;;4.18;;
75837;SDS011;64480;52.040;113.502;2023-04-29T11:19:35;12.90;;;3.85;;
75837;SDS011;64480;52.040;113.502;2023-04-29T11:22:49;13.05;;;4.75;;
75837;SDS011;64480;52.040;113.502;2023-04-29T11:25:54;38.13;;;7.07;;
75837;SDS011;64480;52.040;113.502;2023-04-29T11:28:58;29.77;;;8.50;;
75837;SDS011;64480;52.040;113.502;2023-04-29T11:32:03;21.45;;;6.15;;
75837;SDS011;64480;52.040;113.502;2023-04-29T11:35:11;29.08;;;6.47;;
75837;SDS011;64480;52.040;113.502;2023-04-29T11:38:15;29.00;;;6.15;;
75837;SDS011;64480;52.040;113.502;2023-04-29T11:41:19;11.73;;;4.70;;
75837;SDS011;64480;52.040;113.502;2023-04-29T11:44:25;16.88;;;5.25;;
75837;SDS011;64480;52.040;113.502;2023-04-29T11:47:29;18.33;;;6.60;;
75837;SDS011;64480;52.040;113.502;2023-04-29T11:50:33;11.82;;;5.28;;
75837;SDS011;64480;52.040;113.502;2023-04-29T11:53:47;21.00;;;5.45;;
75837;SDS011;64480;52.040;113.502;2023-04-29T11:56:54;14.70;;;6.05;;
75837;SDS011;64480;52.040;113.502;2023-04-29T11:59:58;25.13;;;8.48;;
75837;SDS011;64480;52.040;113.502;2023-04-29T12:06:38;20.90;;;5.40;;
75837;SDS011;64480;52.040;113.502;2023-04-29T12:09:43;15.90;;;4.90;;
75837;SDS011;64480;52.040;113.502;2023-04-29T12:12:47;10.93;;;4.45;;
75837;SDS011;64480;52.040;113.502;2023-04-29T12:15:51;11.95;;;4.53;;
75837;SDS011;64480;52.040;113.502;2023-04-29T12:18:55;15.35;;;5.35;;
75837;SDS011;64480;52.040;113.502;2023-04-29T12:22:01;21.73;;;4.55;;
75837;SDS011;64480;52.040;113.502;2023-04-29T12:25:09;12.48;;;4.30;;
75837;SDS011;64480;52.040;113.502;2023-04-29T12:28:13;15.75;;;5.93;;
75837;SDS011;64480;52.040;113.502;2023-04-29T12:31:16;16.27;;;4.32;;
75837;SDS011;64480;52.040;113.502;2023-04-29T12:34:29;11.85;;;5.28;;
75837;SDS011;64480;52.040;113.502;2023-04-29T12:37:34;20.90;;;9.38;;
75837;SDS011;64480;52.040;113.502;2023-04-29T12:40:37;16.23;;;6.15;;
75837;SDS011;64480;52.040;113.502;2023-04-29T12:43:40;11.27;;;4.32;;
75837;SDS011;64480;52.040;113.502;2023-04-29T12:46:44;23.58;;;4.63;;
75837;SDS011;64480;52.040;113.502;2023-04-29T12:49:48;9.02;;;3.92;;
75837;SDS011;64480;52.040;113.502;2023-04-29T12:52:51;19.70;;;5.38;;
75837;SDS011;64480;52.040;113.502;2023-04-29T12:55:55;62.05;;;9.18;;
75837;SDS011;64480;52.040;113.502;2023-04-29T12:59:08;54.92;;;18.45;;
75837;SDS011;64480;52.040;113.502;2023-04-29T13:02:14;8.50;;;3.67;;
75837;SDS011;64480;52.040;113.502;2023-04-29T13:05:17;18.13;;;5.43;;
75837;SDS011;64480;52.040;113.502;2023-04-29T13:08:21;19.50;;;6.97;;
75837;SDS011;64480;52.040;113.502;2023-04-29T13:11:24;19.17;;;6.75;;
75837;SDS011;64480;52.040;113.502;2023-04-29T13:14:35;18.35;;;6.93;;
75837;SDS011;64480;52.040;113.502;2023-04-29T13:17:40;12.55;;;5.80;;
75837;SDS011;64480;52.040;113.502;2023-04-29T13:20:44;16.58;;;4.97;;
75837;SDS011;64480;52.040;113.502;2023-04-29T13:23:48;17.77;;;6.25;;
75837;SDS011;64480;52.040;113.502;2023-04-29T13:26:51;15.40;;;5.57;;
75837;SDS011;64480;52.040;113.502;2023-04-29T13:29:56;21.98;;;7.20;;
75837;SDS011;64480;52.040;113.502;2023-04-29T13:32:59;56.58;;;18.38;;
75837;SDS011;64480;52.040;113.502;2023-04-29T13:36:12;43.65;;;19.20;;
75837;SDS011;64480;52.040;113.502;2023-04-29T13:39:17;45.15;;;17.98;;
75837;SDS011;64480;52.040;113.502;2023-04-29T13:42:21;37.05;;;8.48;;
75837;SDS011;64480;52.040;113.502;2023-04-29T13:45:28;50.90;;;17.45;;
75837;SDS011;64480;52.040;113.502;2023-04-29T13:48:31;55.90;;;20.70;;
75837;SDS011;64480;52.040;113.502;2023-04-29T13:51:55;63.50;;;24.90;;
75837;SDS011;64480;52.040;113.502;2023-04-29T13:55:04;85.70;;;31.75;;
75837;SDS011;64480;52.040;113.502;2023-04-29T13:58:11;85.60;;;31.85;;
75837;SDS011;64480;52.040;113.502;2023-04-29T14:01:21;104.65;;;28.92;;
75837;SDS011;64480;52.040;113.502;2023-04-29T14:04:48;84.10;;;26.67;;
75837;SDS011;64480;52.040;113.502;2023-04-29T14:07:54;73.57;;;28.65;;
75837;SDS011;64480;52.040;113.502;2023-04-29T14:10:57;75.95;;;27.83;;
75837;SDS011;64480;52.040;113.502;2023-04-29T14:14:01;70.43;;;24.55;;
75837;SDS011;64480;52.040;113.502;2023-04-29T14:20:12;60.70;;;22.02;;
75837;SDS011;64480;52.040;113.502;2023-04-29T14:23:15;71.97;;;28.38;;
75837;SDS011;64480;52.040;113.502;2023-04-29T14:26:21;53.97;;;19.77;;
75837;SDS011;64480;52.040;113.502;2023-04-29T14:29:29;56.08;;;22.77;;
75837;SDS011;64480;52.040;113.502;2023-04-29T14:32:32;54.85;;;22.02;;
75837;SDS011;64480;52.040;113.502;2023-04-29T14:35:43;68.40;;;24.95;;
75837;SDS011;64480;52.040;113.502;2023-04-29T14:42:09;67.18;;;26.38;;
75837;SDS011;64480;52.040;113.502;2023-04-29T14:45:16;70.20;;;25.88;;
75837;SDS011;64480;52.040;113.502;2023-04-29T14:48:20;63.83;;;24.40;;
75837;SDS011;64480;52.040;113.502;2023-04-29T14:51:25;66.82;;;24.80;;
75837;SDS011;64480;52.040;113.502;2023-04-29T14:54:28;68.00;;;23.42;;
75837;SDS011;64480;52.040;113.502;2023-04-29T14:57:37;61.50;;;22.85;;
75837;SDS011;64480;52.040;113.502;2023-04-29T15:04:15;60.72;;;22.25;;
75837;SDS011;64480;52.040;113.502;2023-04-29T15:28:09;40.92;;;17.65;;
75837;SDS011;64480;52.040;113.502;2023-04-29T15:31:12;44.90;;;19.13;;
75837;SDS011;64480;52.040;113.502;2023-04-29T15:34:15;43.47;;;17.02;;
75837;SDS011;64480;52.040;113.502;2023-04-29T15:37:19;48.78;;;16.02;;
75837;SDS011;64480;52.040;113.502;2023-04-29T15:40:24;32.17;;;12.27;;
75837;SDS011;64480;52.040;113.502;2023-04-29T15:43:28;36.53;;;12.48;;
75837;SDS011;64480;52.040;113.502;2023-04-29T15:46:34;30.38;;;11.18;;
75837;SDS011;64480;52.040;113.502;2023-04-29T15:49:38;36.97;;;13.27;;
75837;SDS011;64480;52.040;113.502;2023-04-29T15:52:41;30.60;;;12.25;;
75837;SDS011;64480;52.040;113.502;2023-04-29T15:55:48;33.00;;;13.13;;
75837;SDS011;64480;52.040;113.502;2023-04-29T15:58:52;30.10;;;13.93;;
75837;SDS011;64480;52.040;113.502;2023-04-29T16:12:02;29.98;;;11.95;;
75837;SDS011;64480;52.040;113.502;2023-04-29T16:15:08;26.48;;;11.30;;
75837;SDS011;64480;52.040;113.502;2023-04-29T16:21:41;32.33;;;11.88;;
75837;SDS011;64480;52.040;113.502;2023-04-29T16:24:47;26.42;;;9.95;;
75837;SDS011;64480;52.040;113.502;2023-04-29T16:28:00;27.95;;;10.90;;
75837;SDS011;64480;52.040;113.502;2023-04-29T16:31:12;33.60;;;12.00;;
75837;SDS011;64480;52.040;113.502;2023-04-29T16:34:17;26.63;;;10.13;;
75837;SDS011;64480;52.040;113.502;2023-04-29T16:37:25;35.10;;;13.40;;
75837;SDS011;64480;52.040;113.502;2023-04-29T16:40:28;31.35;;;11.45;;
75837;SDS011;64480;52.040;113.502;2023-04-29T16:43:32;27.23;;;12.38;;
75837;SDS011;64480;52.040;113.502;2023-04-29T16:46:35;38.85;;;14.00;;
75837;SDS011;64480;52.040;113.502;2023-04-29T16:49:41;43.25;;;14.90;;
75837;SDS011;64480;52.040;113.502;2023-04-29T16:52:47;40.15;;;15.35;;
75837;SDS011;64480;52.040;113.502;2023-04-29T16:55:51;59.45;;;16.80;;
75837;SDS011;64480;52.040;113.502;2023-04-29T16:58:54;46.65;;;17.33;;
75837;SDS011;64480;52.040;113.502;2023-04-29T17:01:58;44.25;;;17.27;;
75837;SDS011;64480;52.040;113.502;2023-04-29T17:05:05;50.58;;;15.85;;
75837;SDS011;64480;52.040;113.502;2023-04-29T17:08:10;31.35;;;12.52;;
75837;SDS011;64480;52.040;113.502;2023-04-29T17:11:22;29.92;;;12.35;;
75837;SDS011;64480;52.040;113.502;2023-04-29T17:14:28;35.70;;;12.25;;
75837;SDS011;64480;52.040;113.502;2023-04-29T17:17:41;23.70;;;10.30;;
75837;SDS011;64480;52.040;113.502;2023-04-29T17:20:51;22.33;;;8.70;;
75837;SDS011;64480;52.040;113.502;2023-04-29T17:23:57;20.38;;;9.82;;
75837;SDS011;64480;52.040;113.502;2023-04-29T17:27:00;26.40;;;10.23;;
75837;SDS011;64480;52.040;113.502;2023-04-29T17:30:03;29.02;;;9.85;;
75837;SDS011;64480;52.040;113.502;2023-04-29T17:33:10;26.17;;;9.45;;
75837;SDS011;64480;52.040;113.502;2023-04-29T17:36:15;33.45;;;12.25;;
75837;SDS011;64480;52.040;113.502;2023-04-29T17:39:25;40.75;;;13.48;;
75837;SDS011;64480;52.040;113.502;2023-04-29T17:42:28;37.67;;;15.25;;
75837;SDS011;64480;52.040;113.502;2023-04-29T17:45:32;37.47;;;15.65;;
75837;SDS011;64480;52.040;113.502;2023-04-29T17:48:41;41.45;;;14.93;;
75837;SDS011;64480;52.040;113.502;2023-04-29T17:51:44;28.55;;;11.82;;
75837;SDS011;64480;52.040;113.502;2023-04-29T17:54:48;20.90;;;9.25;;
75837;SDS011;64480;52.040;113.502;2023-04-29T17:57:53;20.27;;;8.43;;
75837;SDS011;64480;52.040;113.502;2023-04-29T18:00:57;18.48;;;7.90;;
75837;SDS011;64480;52.040;113.502;2023-04-29T18:04:01;20.50;;;8.35;;
75837;SDS011;64480;52.040;113.502;2023-04-29T18:07:05;19.08;;;8.15;;
75837;SDS011;64480;52.040;113.502;2023-04-29T18:10:20;22.40;;;8.38;;
75837;SDS011;64480;52.040;113.502;2023-04-29T18:13:24;18.88;;;8.40;;
75837;SDS011;64480;52.040;113.502;2023-04-29T18:16:28;17.35;;;7.60;;
75837;SDS011;64480;52.040;113.502;2023-04-29T18:19:31;27.13;;;8.50;;
75837;SDS011;64480;52.040;113.502;2023-04-29T18:22:35;19.30;;;7.93;;
75837;SDS011;64480;52.040;113.502;2023-04-29T18:25:38;17.05;;;7.45;;
75837;SDS011;64480;52.040;113.502;2023-04-29T18:28:43;16.33;;;7.25;;
75837;SDS011;64480;52.040;113.502;2023-04-29T18:31:47;15.73;;;7.20;;
75837;SDS011;64480;52.040;113.502;2023-04-29T18:34:51;18.02;;;7.95;;
75837;SDS011;64480;52.040;113.502;2023-04-29T18:37:59;19.88;;;8.82;;
75837;SDS011;64480;52.040;113.502;2023-04-29T18:41:03;18.40;;;7.93;;
75837;SDS011;64480;52.040;113.502;2023-04-29T18:44:10;16.75;;;7.07;;
75837;SDS011;64480;52.040;113.502;2023-04-29T18:47:14;17.77;;;7.72;;
75837;SDS011;64480;52.040;113.502;2023-04-29T18:50:19;15.88;;;6.40;;
75837;SDS011;64480;52.040;113.502;2023-04-29T18:53:22;14.93;;;5.90;;
75837;SDS011;64480;52.040;113.502;2023-04-29T18:56:26;16.13;;;6.95;;
75837;SDS011;64480;52.040;113.502;2023-04-29T18:59:29;15.57;;;6.38;;
75837;SDS011;64480;52.040;113.502;2023-04-29T19:02:33;16.60;;;7.38;;
75837;SDS011;64480;52.040;113.502;2023-04-29T19:05:36;21.15;;;8.85;;
75837;SDS011;64480;52.040;113.502;2023-04-29T19:08:39;28.33;;;12.38;;
75837;SDS011;64480;52.040;113.502;2023-04-29T19:11:43;24.83;;;10.45;;
75837;SDS011;64480;52.040;113.502;2023-04-29T19:14:46;23.85;;;9.45;;
75837;SDS011;64480;52.040;113.502;2023-04-29T19:17:49;19.58;;;9.00;;
75837;SDS011;64480;52.040;113.502;2023-04-29T19:20:53;15.50;;;8.15;;
75837;SDS011;64480;52.040;113.502;2023-04-29T19:23:57;17.88;;;7.95;;
75837;SDS011;64480;52.040;113.502;2023-04-29T19:27:01;17.45;;;7.65;;
75837;SDS011;64480;52.040;113.502;2023-04-29T19:30:08;17.75;;;7.97;;
75837;SDS011;64480;52.040;113.502;2023-04-29T19:33:14;19.77;;;6.90;;
75837;SDS011;64480;52.040;113.502;2023-04-29T19:36:18;14.77;;;6.13;;
75837;SDS011;64480;52.040;113.502;2023-04-29T19:39:22;14.00;;;7.40;;
75837;SDS011;64480;52.040;113.502;2023-04-29T19:42:26;17.63;;;6.40;;
75837;SDS011;64480;52.040;113.502;2023-04-29T19:45:29;14.65;;;7.47;;
75837;SDS011;64480;52.040;113.502;2023-04-29T19:48:33;16.73;;;7.82;;
75837;SDS011;64480;52.040;113.502;2023-04-29T19:51:36;21.45;;;6.75;;
75837;SDS011;64480;52.040;113.502;2023-04-29T19:54:39;16.92;;;7.20;;
75837;SDS011;64480;52.040;113.502;2023-04-29T19:57:43;15.98;;;7.07;;
75837;SDS011;64480;52.040;113.502;2023-04-29T20:00:46;16.58;;;6.65;;
75837;SDS011;64480;52.040;113.502;2023-04-29T20:03:50;13.85;;;6.32;;
75837;SDS011;64480;52.040;113.502;2023-04-29T20:06:53;15.45;;;6.28;;
75837;SDS011;64480;52.040;113.502;2023-04-29T20:09:57;13.88;;;6.35;;
75837;SDS011;64480;52.040;113.502;2023-04-29T20:13:00;13.80;;;6.82;;
75837;SDS011;64480;52.040;113.502;2023-04-29T20:16:03;16.33;;;5.88;;
75837;SDS011;64480;52.040;113.502;2023-04-29T20:19:08;21.75;;;9.57;;
75837;SDS011;64480;52.040;113.502;2023-04-29T20:22:11;17.58;;;6.32;;
75837;SDS011;64480;52.040;113.502;2023-04-29T20:25:14;11.07;;;5.35;;
75837;SDS011;64480;52.040;113.502;2023-04-29T20:28:18;14.05;;;5.85;;
75837;SDS011;64480;52.040;113.502;2023-04-29T20:31:21;12.57;;;5.82;;
75837;SDS011;64480;52.040;113.502;2023-04-29T20:34:25;13.07;;;5.38;;
75837;SDS011;64480;52.040;113.502;2023-04-29T20:37:28;13.27;;;5.60;;
75837;SDS011;64480;52.040;113.502;2023-04-29T20:40:33;12.52;;;6.70;;